Time;durP1;ratioP1;P1;durP2;ratioP2;P2;SDS_P1;SDS_P2;PMS_P1;PMS_P2;Temp;Humidity;BMP_temperature;BMP_pressure;BME280_temperature;BME280_humidity;BME280_pressure;Samples;Min_cycle;Max_cycle;Signal;HPM_P1;HPM_P2
2023/12/20 00:00:18;;;;;;;17;9.5;;;;;;;5.49;57.57;;;;;
2023/12/20 00:10:17;;;;;;;17;9.5;;;;;;;5.34;57.43;;;;;
2023/12/20 00:21:17;;;;;;;19.6;10.3;;;;;;;5.16;57.9;;;;;
2023/12/20 00:31:17;;;;;;;19.6;10.3;;;;;;;4.98;59.09;;;;;
2023/12/20 00:41:17;;;;;;;19.6;10.3;;;;;;;4.77;59.05;;;;;
2023/12/20 00:52:17;;;;;;;19.2;9.4;;;;;;;4.77;60.02;;;;;
2023/12/20 01:02:17;;;;;;;19.2;9.4;;;;;;;5.12;56;;;;;
2023/12/20 01:12:17;;;;;;;19.2;9.4;;;;;;;5.69;52.5;;;;;
2023/12/20 01:23:17;;;;;;;9.5;4.8;;;;;;;5.79;53.55;;;;;
2023/12/20 01:33:17;;;;;;;9.5;4.8;;;;;;;5.58;54.66;;;;;
2023/12/20 01:44:17;;;;;;;9.5;4.8;;;;;;;5.3;55.92;;;;;
2023/12/20 01:55:17;;;;;;;12.1;7.5;;;;;;;4.99;56.58;;;;;
2023/12/20 02:05:17;;;;;;;12.1;7.5;;;;;;;5.3;55.48;;;;;
2023/12/20 02:16:17;;;;;;;7.8;3.9;;;;;;;6.08;52.15;;;;;
2023/12/20 02:26:18;;;;;;;7.8;3.9;;;;;;;6.13;52.24;;;;;
2023/12/20 02:36:17;;;;;;;7.8;3.9;;;;;;;6.16;52.27;;;;;
2023/12/20 02:47:17;;;;;;;5.7;2.8;;;;;;;5.91;51.84;;;;;
2023/12/20 02:57:17;;;;;;;5.7;2.8;;;;;;;6.05;50.35;;;;;
2023/12/20 03:08:17;;;;;;;5.7;2.8;;;;;;;5.95;51.03;;;;;
2023/12/20 03:19:17;;;;;;;5;2.6;;;;;;;5.84;51;;;;;
2023/12/20 03:29:17;;;;;;;5;2.6;;;;;;;5.72;51.61;;;;;
2023/12/20 03:40:17;;;;;;;5;2.6;;;;;;;5.69;52.79;;;;;
2023/12/20 03:50:17;;;;;;;6.4;2.9;;;;;;;5.73;53.51;;;;;
2023/12/20 04:01:17;;;;;;;6.4;2.9;;;;;;;5.82;53.64;;;;;
2023/12/20 04:12:17;;;;;;;6.4;2.9;;;;;;;5.9;54.46;;;;;
2023/12/20 04:22:17;;;;;;;9.1;4.6;;;;;;;5.91;54.75;;;;;
2023/12/20 04:32:17;;;;;;;9.1;4.6;;;;;;;5.92;54.97;;;;;
2023/12/20 04:42:17;;;;;;;9.1;4.6;;;;;;;5.99;54.63;;;;;
2023/12/20 04:53:17;;;;;;;7.1;3.8;;;;;;;6.14;54.94;;;;;
2023/12/20 05:03:17;;;;;;;7.1;3.8;;;;;;;6.19;57.08;;;;;
2023/12/20 05:13:17;;;;;;;7.1;3.8;;;;;;;6.1;60.07;;;;;
2023/12/20 05:24:17;;;;;;;7;4.2;;;;;;;5.96;63.54;;;;;
2023/12/20 05:34:17;;;;;;;7;4.2;;;;;;;5.82;66.17;;;;;
2023/12/20 05:44:17;;;;;;;7;4.2;;;;;;;5.8;68.22;;;;;
2023/12/20 05:55:17;;;;;;;7.4;3.8;;;;;;;5.54;72.01;;;;;
2023/12/20 06:05:17;;;;;;;7.4;3.8;;;;;;;5.41;74.31;;;;;
2023/12/20 06:16:17;;;;;;;9.9;4.4;;;;;;;5.46;74.9;;;;;
2023/12/20 06:27:17;;;;;;;9.9;4.4;;;;;;;5.26;78.02;;;;;
2023/12/20 06:37:17;;;;;;;9.9;4.4;;;;;;;5.2;79.81;;;;;
2023/12/20 06:48:17;;;;;;;8.4;3.7;;;;;;;5.15;81;;;;;
2023/12/20 06:59:17;;;;;;;8.4;3.7;;;;;;;5;83.03;;;;;
2023/12/20 07:10:17;;;;;;;8.4;3.7;;;;;;;5.06;83.74;;;;;
2023/12/20 07:21:17;;;;;;;8;5.2;;;;;;;4.94;84.97;;;;;
2023/12/20 07:32:17;;;;;;;8;5.2;;;;;;;4.92;85.08;;;;;
2023/12/20 07:42:17;;;;;;;8;5.2;;;;;;;4.84;85.65;;;;;
2023/12/20 07:53:17;;;;;;;10.5;6.6;;;;;;;4.79;86.09;;;;;
2023/12/20 08:04:17;;;;;;;10.5;6.6;;;;;;;4.8;86.69;;;;;
2023/12/20 08:14:17;;;;;;;10.5;6.6;;;;;;;4.88;86.72;;;;;
2023/12/20 08:25:17;;;;;;;15.8;8.2;;;;;;;5.02;86.85;;;;;
2023/12/20 08:36:17;;;;;;;15.8;8.2;;;;;;;4.95;87.27;;;;;
2023/12/20 08:46:17;;;;;;;10.6;7.2;;;;;;;5.02;87.29;;;;;
2023/12/20 08:57:17;;;;;;;10.6;7.2;;;;;;;4.89;87.7;;;;;
2023/12/20 09:08:17;;;;;;;10.6;7.2;;;;;;;5.09;87.03;;;;;
2023/12/20 09:18:17;;;;;;;9.4;5.5;;;;;;;5.14;87.26;;;;;
2023/12/20 09:29:18;;;;;;;9.4;5.5;;;;;;;5.09;87.34;;;;;
2023/12/20 09:39:19;;;;;;;9.4;5.5;;;;;;;5.04;87.66;;;;;
2023/12/20 09:49:17;;;;;;;11.4;6.1;;;;;;;5.14;87.33;;;;;
2023/12/20 09:59:17;;;;;;;11.4;6.1;;;;;;;5.11;87.77;;;;;
2023/12/20 10:09:17;;;;;;;11.4;6.1;;;;;;;5.1;87.35;;;;;
2023/12/20 10:20:17;;;;;;;9.1;5.6;;;;;;;4.91;87.81;;;;;
2023/12/20 10:31:17;;;;;;;9.1;5.6;;;;;;;4.96;87.4;;;;;
2023/12/20 10:42:17;;;;;;;9.1;5.6;;;;;;;4.88;86.98;;;;;
2023/12/20 10:52:17;;;;;;;9.3;4.9;;;;;;;4.95;86.9;;;;;
2023/12/20 11:02:17;;;;;;;9.3;4.9;;;;;;;4.89;86.73;;;;;
2023/12/20 11:12:17;;;;;;;9.3;4.9;;;;;;;4.76;87.24;;;;;
2023/12/20 11:22:17;;;;;;;6.8;3.3;;;;;;;4.77;87.5;;;;;
2023/12/20 11:33:17;;;;;;;6.8;3.3;;;;;;;4.88;87.31;;;;;
2023/12/20 11:44:17;;;;;;;7;4.2;;;;;;;4.99;87.44;;;;;
2023/12/20 11:55:17;;;;;;;7;4.2;;;;;;;4.75;87.47;;;;;
2023/12/20 12:06:17;;;;;;;7;4.2;;;;;;;4.88;87.39;;;;;
2023/12/20 12:16:18;;;;;;;7.4;4.3;;;;;;;4.8;87.67;;;;;
2023/12/20 12:27:17;;;;;;;7.4;4.3;;;;;;;4.88;87.61;;;;;
2023/12/20 12:37:17;;;;;;;7.4;4.3;;;;;;;4.98;87.04;;;;;
2023/12/20 12:48:17;;;;;;;4.7;2.4;;;;;;;4.9;86.62;;;;;
2023/12/20 12:58:17;;;;;;;4.7;2.4;;;;;;;4.95;86.7;;;;;
2023/12/20 13:08:18;;;;;;;4.7;2.4;;;;;;;5.04;86.96;;;;;
2023/12/20 13:18:18;;;;;;;6.3;3.7;;;;;;;5.04;86.44;;;;;
2023/12/20 13:29:17;;;;;;;6.3;3.7;;;;;;;4.93;86.34;;;;;
2023/12/20 13:40:17;;;;;;;6.3;3.7;;;;;;;4.97;85.17;;;;;
2023/12/20 13:50:17;;;;;;;6.4;3.5;;;;;;;5.04;84.81;;;;;
2023/12/20 14:01:17;;;;;;;6.4;3.5;;;;;;;5.15;84.88;;;;;
2023/12/20 14:11:18;;;;;;;6.4;3.5;;;;;;;5.07;84.66;;;;;
2023/12/20 14:21:18;;;;;;;6.7;4;;;;;;;5.12;83.62;;;;;
2023/12/20 14:32:17;;;;;;;6.7;4;;;;;;;4.89;83.2;;;;;
2023/12/20 14:43:17;;;;;;;6.7;4;;;;;;;4.78;83.26;;;;;
2023/12/20 14:53:18;;;;;;;7.3;3.6;;;;;;;4.68;83.96;;;;;
2023/12/20 15:04:17;;;;;;;7.3;3.6;;;;;;;4.62;84.1;;;;;
2023/12/20 15:15:18;;;;;;;6.7;3.8;;;;;;;4.57;84.31;;;;;
2023/12/20 15:26:17;;;;;;;6.7;3.8;;;;;;;4.63;83.72;;;;;
2023/12/20 15:36:17;;;;;;;6.7;3.8;;;;;;;4.73;83.11;;;;;
2023/12/20 15:47:17;;;;;;;9.3;4.5;;;;;;;4.54;83.32;;;;;
2023/12/20 15:57:17;;;;;;;9.3;4.5;;;;;;;4.4;83.3;;;;;
2023/12/20 16:07:18;;;;;;;9.3;4.5;;;;;;;4.35;83.74;;;;;
2023/12/20 16:18:17;;;;;;;7.7;4.6;;;;;;;4.34;83.92;;;;;
2023/12/20 16:29:17;;;;;;;7.7;4.6;;;;;;;4.49;83.4;;;;;
2023/12/20 16:39:18;;;;;;;7.7;4.6;;;;;;;4.43;82.9;;;;;
2023/12/20 16:50:18;;;;;;;12.7;5.2;;;;;;;4.54;82.13;;;;;
2023/12/20 17:00:18;;;;;;;12.7;5.2;;;;;;;4.51;81.45;;;;;
2023/12/20 17:10:18;;;;;;;12.7;5.2;;;;;;;4.44;80.86;;;;;
2023/12/20 17:20:18;;;;;;;7.4;4.4;;;;;;;4.36;80.55;;;;;
2023/12/20 17:31:17;;;;;;;7.4;4.4;;;;;;;4.16;80.46;;;;;
2023/12/20 17:41:18;;;;;;;7.4;4.4;;;;;;;3.95;80.43;;;;;
2023/12/20 17:52:18;;;;;;;11.8;5.4;;;;;;;3.86;81.22;;;;;
2023/12/20 18:03:18;;;;;;;11.8;5.4;;;;;;;4.08;80.64;;;;;
2023/12/20 18:13:18;;;;;;;11.8;5.4;;;;;;;4.25;79.84;;;;;
2023/12/20 18:23:18;;;;;;;11.2;5.3;;;;;;;4.37;79.69;;;;;
2023/12/20 18:34:18;;;;;;;11.2;5.3;;;;;;;4.39;79.06;;;;;
2023/12/20 18:44:18;;;;;;;10.6;5.7;;;;;;;4.52;77.49;;;;;
2023/12/20 18:54:18;;;;;;;10.6;5.7;;;;;;;4.61;76.44;;;;;
2023/12/20 19:04:18;;;;;;;10.6;5.7;;;;;;;4.67;76.26;;;;;
2023/12/20 19:15:18;;;;;;;9.1;3.6;;;;;;;4.7;75.5;;;;;
2023/12/20 19:26:18;;;;;;;9.1;3.6;;;;;;;4.7;75.41;;;;;
2023/12/20 19:37:18;;;;;;;9.1;3.6;;;;;;;4.77;75.21;;;;;
2023/12/20 19:47:18;;;;;;;8;3.1;;;;;;;4.87;73.73;;;;;
2023/12/20 19:57:18;;;;;;;8;3.1;;;;;;;4.83;72.77;;;;;
2023/12/20 20:08:18;;;;;;;8;3.1;;;;;;;4.6;73.65;;;;;
2023/12/20 20:18:18;;;;;;;5.4;2.6;;;;;;;4.67;73.55;;;;;
2023/12/20 20:29:18;;;;;;;5.4;2.6;;;;;;;4.6;73.78;;;;;
2023/12/20 20:40:18;;;;;;;5.4;2.6;;;;;;;4.38;74.35;;;;;
2023/12/20 20:51:18;;;;;;;7.9;3.2;;;;;;;4.28;75.04;;;;;
2023/12/20 21:02:19;;;;;;;7.9;3.2;;;;;;;4.16;75.14;;;;;
2023/12/20 21:12:18;;;;;;;7.9;3.2;;;;;;;3.96;75.01;;;;;
2023/12/20 21:22:18;;;;;;;10.2;4.2;;;;;;;4.08;74.51;;;;;
2023/12/20 21:33:18;;;;;;;10.2;4.2;;;;;;;4.34;73.73;;;;;
2023/12/20 21:44:18;;;;;;;4.1;1.8;;;;;;;4.35;74.17;;;;;
2023/12/20 21:54:18;;;;;;;4.1;1.8;;;;;;;4.48;73.92;;;;;
2023/12/20 22:05:18;;;;;;;4.1;1.8;;;;;;;4.73;73.41;;;;;
2023/12/20 22:16:18;;;;;;;4.9;2.3;;;;;;;4.92;73.03;;;;;
2023/12/20 22:27:18;;;;;;;4.9;2.3;;;;;;;4.96;73.1;;;;;
2023/12/20 22:37:18;;;;;;;4.9;2.3;;;;;;;4.94;73.35;;;;;
2023/12/20 22:48:18;;;;;;;6.3;2.5;;;;;;;4.94;73.51;;;;;
2023/12/20 22:59:18;;;;;;;6.3;2.5;;;;;;;4.98;73.45;;;;;
2023/12/20 23:09:18;;;;;;;6.3;2.5;;;;;;;5.02;73.43;;;;;
2023/12/20 23:20:18;;;;;;;5.3;2.1;;;;;;;5.03;73.75;;;;;
2023/12/20 23:30:18;;;;;;;5.3;2.1;;;;;;;5.08;73.77;;;;;
2023/12/20 23:40:18;;;;;;;5.3;2.1;;;;;;;5.1;73.8;;;;;
2023/12/20 23:51:18;;;;;;;2.8;1.7;;;;;;;5.03;73.71;;;;;
